Time;durP1;ratioP1;P1;durP2;ratioP2;P2;SDS_P1;SDS_P2;PMS_P1;PMS_P2;Temp;Humidity;BMP_temperature;BMP_pressure;BME280_temperature;BME280_humidity;BME280_pressure;Samples;Min_cycle;Max_cycle;Signal;HPM_P1;HPM_P2
2022/07/12 00:00:42;;;;;;;2.87;1.80;;;;;;;13.71;90.54;98954.06;1802367;79;21042;-77
2022/07/12 00:03:10;;;;;;;4.17;2.25;;;;;;;13.69;90.61;98955.47;1802581;79;21042;-76
2022/07/12 00:05:37;;;;;;;5.97;2.02;;;;;;;13.70;90.67;98955.87;1802966;79;20996;-75
2022/07/12 00:08:04;;;;;;;5.28;2.15;;;;;;;13.69;90.67;98953.31;1802669;79;21135;-76
2022/07/12 00:10:32;;;;;;;7.42;1.47;;;;;;;13.68;90.64;98959.52;1802794;78;21123;-76
2022/07/12 00:12:59;;;;;;;0.90;0.90;;;;;;;13.66;90.67;98952.15;1802284;79;21086;-76
2022/07/12 00:15:26;;;;;;;2.20;0.98;;;;;;;13.66;90.63;98956.96;1802657;79;21052;-76
2022/07/12 00:17:52;;;;;;;5.22;1.00;;;;;;;13.66;90.63;98954.31;1802849;78;20992;-77
2022/07/12 00:20:18;;;;;;;1.60;1.10;;;;;;;13.65;90.62;98960.56;1802812;78;21716;-76
2022/07/12 00:22:46;;;;;;;3.85;1.10;;;;;;;13.64;90.70;98958.00;1802567;79;21024;-76
2022/07/12 00:25:13;;;;;;;1.95;1.12;;;;;;;13.61;90.81;98956.37;1802363;79;21055;-76
2022/07/12 00:27:40;;;;;;;2.22;1.20;;;;;;;13.60;90.70;98954.68;1802675;78;21301;-76
2022/07/12 00:30:08;;;;;;;2.42;1.30;;;;;;;13.61;90.78;98951.56;1802875;79;21487;-76
2022/07/12 00:32:35;;;;;;;1.82;1.37;;;;;;;13.59;90.77;98950.32;1802890;79;21210;-77
2022/07/12 00:35:02;;;;;;;4.78;1.40;;;;;;;13.58;90.71;98956.53;1805233;78;21135;-76
2022/07/12 00:37:29;;;;;;;5.50;1.30;;;;;;;13.56;90.78;98957.09;1805273;79;21599;-76
2022/07/12 00:39:55;;;;;;;2.08;1.45;;;;;;;13.56;90.82;98954.45;1805041;79;20997;-78
2022/07/12 00:42:22;;;;;;;3.20;1.12;;;;;;;13.55;90.53;98952.77;1805435;79;20973;-77
2022/07/12 00:44:50;;;;;;;3.08;1.55;;;;;;;13.54;90.31;98955.86;1805036;79;21061;-77
2022/07/12 00:47:39;;;;;;;2.77;1.75;;;;;;;13.55;90.54;98956.73;1805585;79;21116;-76
2022/07/12 00:50:08;;;;;;;5.60;1.87;;;;;;;13.54;90.76;98955.02;1805020;79;21024;-77
2022/07/12 00:52:36;;;;;;;2.02;1.60;;;;;;;13.53;90.85;98953.30;1805114;79;21037;-76
2022/07/12 00:55:06;;;;;;;2.45;1.70;;;;;;;13.52;90.87;98960.38;1805179;79;21064;-77
2022/07/12 00:57:33;;;;;;;3.67;1.57;;;;;;;13.50;90.67;98956.11;1805023;79;21115;-78
2022/07/12 01:00:00;;;;;;;2.35;1.90;;;;;;;13.49;90.83;98959.70;1805174;79;21195;-76
2022/07/12 01:02:28;;;;;;;2.80;1.57;;;;;;;13.47;90.69;98948.38;1805161;79;21114;-76
2022/07/12 01:04:55;;;;;;;4.78;2.27;;;;;;;13.45;90.88;98951.55;1805102;79;20994;-77
2022/07/12 01:07:25;;;;;;;4.50;2.20;;;;;;;13.46;90.87;98949.30;1804951;79;21049;-76
2022/07/12 01:09:55;;;;;;;4.15;2.25;;;;;;;13.45;90.91;98943.62;1805580;79;21143;-75
2022/07/12 01:12:22;;;;;;;2.42;1.98;;;;;;;13.43;90.92;98944.18;1781056;79;21033;-77
2022/07/12 01:14:49;;;;;;;2.50;1.70;;;;;;;13.42;90.90;98947.78;1805231;79;21154;-75
2022/07/12 01:17:23;;;;;;;5.37;1.70;;;;;;;13.40;90.87;98945.22;1804847;79;21053;-76
2022/07/12 01:19:52;;;;;;;2.87;1.95;;;;;;;13.39;90.97;98947.47;1805491;79;21048;-75
2022/07/12 01:22:18;;;;;;;4.10;1.82;;;;;;;13.38;91.14;98952.35;1804778;79;21117;-76
2022/07/12 01:24:45;;;;;;;3.52;1.20;;;;;;;13.36;91.03;98952.47;1805116;79;20990;-77
2022/07/12 01:27:12;;;;;;;19.40;2.12;;;;;;;13.35;91.23;98949.43;1805173;79;21075;-77
2022/07/12 01:29:39;;;;;;;3.05;0.88;;;;;;;13.32;91.38;98948.75;1805291;79;21049;-77
2022/07/12 01:32:25;;;;;;;4.17;1.00;;;;;;;13.30;91.43;98946.16;1805050;79;21119;-75
2022/07/12 01:35:05;;;;;;;1.35;0.80;;;;;;;13.27;91.35;98943.67;1784004;79;22197;-76
2022/07/12 01:37:38;;;;;;;2.83;1.00;;;;;;;13.24;91.51;98946.96;1805394;79;21560;-77
2022/07/12 01:40:06;;;;;;;3.12;1.02;;;;;;;13.20;91.63;98944.95;1803824;79;21507;-77
2022/07/12 01:42:33;;;;;;;3.98;0.90;;;;;;;13.15;91.63;98943.04;1805511;79;21493;-76
2022/07/12 01:45:00;;;;;;;1.15;0.90;;;;;;;13.11;91.69;98944.13;1804882;79;21084;-77
2022/07/12 01:47:30;;;;;;;4.05;0.85;;;;;;;13.08;91.66;98945.60;1805454;79;21167;-76
2022/07/12 01:49:56;;;;;;;2.02;0.90;;;;;;;13.04;91.68;98945.40;1805264;79;21045;-76
2022/07/12 01:52:22;;;;;;;4.67;1.10;;;;;;;13.00;91.66;98950.84;1805226;79;21100;-76
2022/07/12 01:54:49;;;;;;;2.30;1.20;;;;;;;12.97;91.67;98948.36;1805137;79;21659;-77
2022/07/12 01:57:16;;;;;;;1.37;0.82;;;;;;;12.96;91.66;98952.39;1805213;79;21037;-76
2022/07/12 01:59:43;;;;;;;2.22;1.12;;;;;;;12.93;91.65;98953.44;1805496;79;21151;-76
2022/07/12 02:02:09;;;;;;;3.95;1.05;;;;;;;12.90;91.61;98944.34;1804793;79;21017;-76
2022/07/12 02:04:37;;;;;;;2.17;1.00;;;;;;;12.90;91.51;98953.59;1804851;79;21048;-76
2022/07/12 02:07:05;;;;;;;2.62;0.90;;;;;;;12.89;91.58;98955.83;1806158;77;21070;-76
2022/07/12 02:09:31;;;;;;;3.27;1.10;;;;;;;12.87;91.60;98955.06;1805145;79;21102;-77
2022/07/12 02:11:59;;;;;;;3.80;1.12;;;;;;;12.84;91.65;98952.58;1805133;79;21138;-77
2022/07/12 02:14:26;;;;;;;4.35;1.05;;;;;;;12.82;91.68;98952.66;1805079;79;21118;-77
2022/07/12 02:16:54;;;;;;;4.90;1.27;;;;;;;12.81;91.65;98959.38;1805028;79;21573;-78
2022/07/12 02:19:20;;;;;;;3.62;0.88;;;;;;;12.79;91.69;98951.98;1805741;78;20992;-77
2022/07/12 02:21:47;;;;;;;1.17;0.82;;;;;;;12.77;91.72;98959.13;1738555;82;21416;-78
2022/07/12 02:24:14;;;;;;;1.77;1.15;;;;;;;12.75;91.62;98964.96;1737389;82;21161;-76
2022/07/12 02:26:40;;;;;;;2.15;0.90;;;;;;;12.73;91.64;98969.00;1768957;81;21138;-75
2022/07/12 02:29:07;;;;;;;1.15;0.72;;;;;;;12.73;91.65;98968.16;1760094;80;21115;-76
2022/07/12 02:31:33;;;;;;;3.92;1.30;;;;;;;12.72;91.57;98971.23;1760825;81;21598;-77
2022/07/12 02:34:00;;;;;;;1.80;1.00;;;;;;;12.71;91.48;98970.00;1780323;80;21570;-77
2022/07/12 02:36:27;;;;;;;2.25;0.90;;;;;;;12.68;91.41;98971.50;1734052;81;21746;-76
2022/07/12 02:38:53;;;;;;;1.77;0.98;;;;;;;12.68;91.42;98978.10;1767012;80;21090;-76
2022/07/12 02:41:20;;;;;;;2.77;0.90;;;;;;;12.68;91.42;98976.31;1760897;81;21103;-77
2022/07/12 02:43:47;;;;;;;1.17;1.00;;;;;;;12.69;91.34;98981.11;1759302;80;21024;-77
2022/07/12 02:46:13;;;;;;;1.07;1.00;;;;;;;12.69;91.46;98979.79;1759056;81;21012;-77
2022/07/12 02:48:42;;;;;;;2.90;0.90;;;;;;;12.67;91.49;98984.30;1758502;81;21316;-76
2022/07/12 02:51:09;;;;;;;1.72;1.00;;;;;;;12.67;91.41;98981.66;1758961;80;21131;-76
2022/07/12 02:53:37;;;;;;;1.17;1.00;;;;;;;12.68;91.34;98983.38;1758540;81;21063;-76
2022/07/12 02:56:04;;;;;;;3.85;1.00;;;;;;;12.67;91.17;98984.30;1758801;80;21009;-77
2022/07/12 02:58:31;;;;;;;4.17;1.05;;;;;;;12.66;91.19;98987.42;1758574;80;21517;-77
2022/07/12 03:00:57;;;;;;;1.00;1.00;;;;;;;12.66;91.15;98985.22;1758716;81;21111;-77
2022/07/12 03:03:24;;;;;;;4.78;1.00;;;;;;;12.64;91.30;98986.17;1758463;80;21071;-76
2022/07/12 03:05:51;;;;;;;0.88;0.88;;;;;;;12.63;91.11;98993.69;1758545;81;21329;-76
2022/07/12 03:08:18;;;;;;;1.98;1.10;;;;;;;12.66;91.15;98986.55;1758564;81;20997;-78
2022/07/12 03:10:45;;;;;;;2.58;1.30;;;;;;;12.65;91.13;98983.06;1758691;81;21080;-77
2022/07/12 03:13:11;;;;;;;2.70;1.20;;;;;;;12.64;90.95;98980.89;1758670;81;21156;-77
2022/07/12 03:15:38;;;;;;;2.12;1.30;;;;;;;12.64;90.91;98983.53;1758527;81;21142;-77
2022/07/12 03:18:06;;;;;;;9.83;1.30;;;;;;;12.66;90.76;98981.27;1758388;80;21055;-75
2022/07/12 03:20:33;;;;;;;1.45;1.22;;;;;;;12.66;90.69;98981.27;1758332;80;21060;-77
2022/07/12 03:23:00;;;;;;;9.60;2.22;;;;;;;12.63;90.61;98984.45;1759076;80;20988;-77
2022/07/12 03:25:26;;;;;;;2.25;0.98;;;;;;;12.60;90.47;98981.97;1758447;81;21167;-77
2022/07/12 03:27:54;;;;;;;2.15;1.02;;;;;;;12.59;90.56;98976.77;1758588;81;21108;-76
2022/07/12 03:30:20;;;;;;;1.30;1.20;;;;;;;12.58;90.59;98981.20;1758391;80;21059;-76
2022/07/12 03:32:47;;;;;;;1.12;0.82;;;;;;;12.59;90.84;98982.92;1758609;81;21056;-76
2022/07/12 03:35:15;;;;;;;2.02;1.17;;;;;;;12.61;91.12;98983.69;1782602;79;21028;-76
2022/07/12 03:37:53;;;;;;;6.08;1.30;;;;;;;12.63;91.05;98979.17;1799346;78;21475;-76
2022/07/12 03:40:18;;;;;;;1.92;1.10;;;;;;;12.68;91.23;98984.70;1799306;79;21605;-76
2022/07/12 03:42:45;;;;;;;4.53;1.12;;;;;;;12.71;91.04;98988.03;1799320;79;21126;-77
2022/07/12 03:45:12;;;;;;;2.17;1.32;;;;;;;12.76;90.51;98987.33;1799675;79;21095;-76
2022/07/12 03:47:40;;;;;;;2.47;0.90;;;;;;;12.81;90.39;98985.30;1799283;79;21059;-76
2022/07/12 03:50:12;;;;;;;1.22;1.10;;;;;;;12.86;90.31;98992.11;1799330;78;21244;-76
2022/07/12 03:52:41;;;;;;;1.22;1.10;;;;;;;12.89;90.06;98994.59;1799128;79;20989;-76
2022/07/12 03:55:08;;;;;;;2.60;1.10;;;;;;;12.91;89.81;98993.59;1799384;79;21098;-76
2022/07/12 03:57:35;;;;;;;2.67;1.00;;;;;;;12.96;89.87;98999.48;1799637;79;21103;-77
2022/07/12 04:00:08;;;;;;;2.47;1.10;;;;;;;13.01;89.66;98997.45;1799492;79;21083;-77
2022/07/12 04:02:34;;;;;;;6.58;1.10;;;;;;;13.05;89.14;98994.66;1799061;78;21639;-76
2022/07/12 04:05:01;;;;;;;3.58;1.12;;;;;;;13.07;88.95;98999.38;1799321;78;21083;-76
2022/07/12 04:07:27;;;;;;;2.22;1.00;;;;;;;13.13;89.36;99000.35;1790730;78;21506;-78
2022/07/12 04:09:54;;;;;;;1.45;1.00;;;;;;;13.21;88.06;99011.37;1723312;83;21073;-76
2022/07/12 04:12:20;;;;;;;1.45;1.10;;;;;;;13.24;87.75;99019.13;1716546;83;21098;-77
2022/07/12 04:14:47;;;;;;;2.20;1.30;;;;;;;13.24;87.22;99016.48;1716300;82;21102;-75
2022/07/12 04:17:15;;;;;;;3.33;1.17;;;;;;;13.25;86.57;99016.05;1715957;83;21561;-76
2022/07/12 04:19:41;;;;;;;3.72;1.40;;;;;;;13.28;86.86;99007.48;1716195;83;20992;-76
2022/07/12 04:22:07;;;;;;;2.85;1.42;;;;;;;13.32;86.93;99006.88;1716202;83;21023;-77
2022/07/12 04:24:34;;;;;;;5.35;1.07;;;;;;;13.37;86.71;99014.08;1716213;83;21062;-76
2022/07/12 04:27:00;;;;;;;4.78;1.25;;;;;;;13.38;86.27;99004.75;1716399;83;21622;-75
2022/07/12 04:29:27;;;;;;;3.08;1.30;;;;;;;13.42;86.11;99011.20;1716089;83;21592;-76
2022/07/12 04:31:53;;;;;;;3.02;1.15;;;;;;;13.45;85.66;99005.72;1716329;83;21352;-77
2022/07/12 04:34:20;;;;;;;3.77;1.20;;;;;;;13.50;84.93;99011.61;1718668;82;21043;-77
2022/07/12 04:36:47;;;;;;;4.03;1.30;;;;;;;13.51;85.41;99010.68;1773357;80;21063;-76
2022/07/12 04:39:14;;;;;;;2.98;1.10;;;;;;;13.55;85.56;99009.59;1809886;79;21130;-76
2022/07/12 04:41:41;;;;;;;1.85;0.95;;;;;;;13.64;85.31;99009.07;1809603;79;21027;-77
2022/07/12 04:44:08;;;;;;;3.22;1.17;;;;;;;13.69;84.81;99017.59;1774169;80;21004;-76
2022/07/12 04:46:34;;;;;;;3.95;1.05;;;;;;;13.71;84.48;99019.68;1846614;77;21553;-77
2022/07/12 04:49:02;;;;;;;3.22;1.55;;;;;;;13.74;84.38;99019.52;1846935;77;21007;-77
2022/07/12 04:51:28;;;;;;;3.10;1.30;;;;;;;13.79;83.58;99027.67;1846697;77;21876;-77
2022/07/12 04:53:57;;;;;;;2.10;1.10;;;;;;;13.82;83.97;99021.75;1846707;77;21098;-76
2022/07/12 04:56:23;;;;;;;1.90;1.07;;;;;;;13.87;83.61;99026.75;1847263;77;21532;-77
2022/07/12 04:58:49;;;;;;;1.92;1.07;;;;;;;13.91;83.25;99030.95;1846912;77;21027;-75
2022/07/12 05:01:17;;;;;;;2.35;1.00;;;;;;;13.95;83.81;99032.47;1847037;77;21090;-76
2022/07/12 05:03:44;;;;;;;2.05;0.95;;;;;;;14.03;83.70;99032.05;1846964;77;21127;-76
2022/07/12 05:06:10;;;;;;;4.28;1.22;;;;;;;14.09;83.77;99036.52;1846919;77;21026;-76
2022/07/12 05:08:38;;;;;;;1.00;1.00;;;;;;;14.15;82.81;99037.95;1846758;77;21019;-76
2022/07/12 05:11:05;;;;;;;2.85;1.17;;;;;;;14.19;82.40;99035.98;1846813;77;20968;-77
2022/07/12 05:13:32;;;;;;;3.55;1.10;;;;;;;14.25;82.98;99033.00;1847265;77;21043;-76
2022/07/12 05:15:58;;;;;;;1.15;1.00;;;;;;;14.33;82.57;99038.70;1847139;77;21170;-76
2022/07/12 05:18:26;;;;;;;1.45;1.30;;;;;;;14.39;81.98;99037.03;1846747;77;20988;-78
2022/07/12 05:20:52;;;;;;;4.25;1.20;;;;;;;14.42;81.90;99032.86;1847053;77;20984;-77
2022/07/12 05:23:19;;;;;;;2.40;1.27;;;;;;;14.50;81.32;99037.24;1846835;77;20995;-77
2022/07/12 05:25:47;;;;;;;1.27;1.17;;;;;;;14.57;80.07;99040.86;1847221;77;20998;-77
2022/07/12 05:28:19;;;;;;;3.22;1.20;;;;;;;14.60;80.88;99047.34;1846745;77;21571;-78
2022/07/12 05:30:43;;;;;;;3.25;1.12;;;;;;;14.64;81.11;99043.55;1846951;77;21103;-75
2022/07/12 05:33:12;;;;;;;2.58;1.10;;;;;;;14.72;80.77;99045.28;1846654;77;21039;-76
2022/07/12 05:35:38;;;;;;;3.05;1.40;;;;;;;14.81;80.58;99052.70;1842477;77;21023;-78
2022/07/12 05:38:05;;;;;;;1.02;0.90;;;;;;;14.90;79.78;99058.39;1838137;78;21019;-76
2022/07/12 05:40:32;;;;;;;5.25;1.12;;;;;;;14.94;79.68;99047.98;1838235;77;21091;-76
2022/07/12 05:42:58;;;;;;;6.25;1.40;;;;;;;15.03;80.68;99046.11;1838524;77;21059;-76
2022/07/12 05:45:25;;;;;;;1.60;1.00;;;;;;;15.18;80.44;99044.30;1837979;78;21027;-76
2022/07/12 05:47:52;;;;;;;2.05;0.95;;;;;;;15.28;79.19;99047.25;1838309;77;21565;-76
2022/07/12 05:50:18;;;;;;;2.40;1.00;;;;;;;15.32;78.55;99060.70;1837887;78;21031;-77
2022/07/12 05:55:31;;;;;;;7.28;1.12;;;;;;;15.38;78.09;99051.03;1838115;78;20968;-75
2022/07/12 05:57:57;;;;;;;4.40;1.00;;;;;;;15.43;78.22;99048.95;1838305;78;20963;-76
2022/07/12 06:00:24;;;;;;;1.07;1.00;;;;;;;15.47;77.52;99043.84;1805896;77;21133;-77
2022/07/12 06:02:51;;;;;;;2.52;1.00;;;;;;;15.52;77.48;99048.39;1805016;79;21118;-76
2022/07/12 06:05:18;;;;;;;1.27;1.00;;;;;;;15.58;77.76;99046.69;1805035;79;21105;-77
2022/07/12 06:07:44;;;;;;;2.02;1.12;;;;;;;15.69;77.32;99059.74;1738628;82;21029;-76
2022/07/12 06:10:11;;;;;;;1.10;0.90;;;;;;;15.74;76.81;99058.98;1769323;81;21106;-77
2022/07/12 06:12:38;;;;;;;1.25;0.90;;;;;;;15.77;75.03;99058.81;1769374;81;20996;-77
2022/07/12 06:15:06;;;;;;;2.70;0.95;;;;;;;15.76;76.24;99056.62;1769239;81;21143;-76
2022/07/12 06:17:34;;;;;;;1.40;1.20;;;;;;;15.85;76.65;99067.59;1769124;81;21110;-76
2022/07/12 06:20:02;;;;;;;2.15;0.90;;;;;;;15.91;76.13;99076.02;1768999;81;20992;-77
2022/07/12 06:22:29;;;;;;;0.93;0.82;;;;;;;15.96;74.87;99061.98;1769580;81;21059;-76
2022/07/12 06:24:55;;;;;;;3.60;0.90;;;;;;;15.96;74.58;99061.98;1769152;81;21111;-75
2022/07/12 06:27:22;;;;;;;0.90;0.90;;;;;;;15.98;75.02;99072.02;1769616;81;21107;-76
2022/07/12 06:29:48;;;;;;;1.92;0.80;;;;;;;15.98;74.54;99072.02;1756310;81;21614;-76
2022/07/12 06:32:17;;;;;;;1.22;0.95;;;;;;;16.01;73.65;99070.14;1728441;83;21080;-77
2022/07/12 06:34:44;;;;;;;1.95;1.10;;;;;;;16.02;74.33;99072.70;1746124;81;20993;-76
2022/07/12 06:37:12;;;;;;;3.58;0.78;;;;;;;16.09;74.54;99078.47;1715175;82;21521;-76
2022/07/12 06:39:39;;;;;;;4.83;0.98;;;;;;;16.19;73.99;99081.35;1715779;83;21087;-77
2022/07/12 06:42:06;;;;;;;2.05;1.10;;;;;;;16.24;74.03;99082.77;1715209;83;21153;-76
2022/07/12 06:44:33;;;;;;;1.50;0.80;;;;;;;16.36;74.31;99081.13;1715255;83;21111;-77
2022/07/12 06:47:00;;;;;;;2.10;1.02;;;;;;;16.44;72.85;99084.58;1714928;83;21064;-76
2022/07/12 06:49:26;;;;;;;1.25;0.90;;;;;;;16.55;73.37;99088.72;1715752;83;21012;-77
2022/07/12 06:51:53;;;;;;;1.47;0.80;;;;;;;16.66;72.33;99102.15;1715223;83;21032;-77
2022/07/12 06:54:20;;;;;;;1.10;1.00;;;;;;;16.75;71.03;99095.85;1715522;82;21162;-78
2022/07/12 06:56:46;;;;;;;1.80;0.70;;;;;;;16.82;71.59;99107.77;1715009;83;21111;-76
2022/07/12 06:59:13;;;;;;;2.00;0.88;;;;;;;16.86;69.62;99106.63;1715258;83;21044;-76
2022/07/12 07:01:40;;;;;;;1.45;0.78;;;;;;;16.85;69.58;99100.95;1715512;83;21056;-77
2022/07/12 07:04:08;;;;;;;0.93;0.72;;;;;;;16.85;68.96;99110.25;1715360;82;21051;-78
2022/07/12 07:06:34;;;;;;;3.72;0.90;;;;;;;16.90;68.10;99104.15;1715282;83;21533;-76
2022/07/12 07:09:01;;;;;;;5.08;1.22;;;;;;;16.94;68.04;99113.60;1715342;82;21677;-75
2022/07/12 07:11:29;;;;;;;2.65;0.75;;;;;;;17.01;69.35;99117.57;1714937;83;21048;-77
2022/07/12 07:13:57;;;;;;;2.42;0.80;;;;;;;17.14;68.62;99115.40;1715425;82;21036;-77
2022/07/12 07:16:25;;;;;;;2.17;0.80;;;;;;;17.24;68.53;99110.66;1715140;83;21068;-77
2022/07/12 07:18:52;;;;;;;4.45;0.70;;;;;;;17.30;67.12;99115.19;1715262;82;22050;-77
2022/07/12 07:21:19;;;;;;;1.37;0.80;;;;;;;17.25;67.36;99116.86;1715029;83;21048;-77
2022/07/12 07:23:45;;;;;;;3.10;1.10;;;;;;;17.23;66.20;99111.64;1715386;82;21009;-76
2022/07/12 07:26:12;;;;;;;3.05;0.95;;;;;;;17.25;67.69;99108.87;1715380;82;21049;-77
2022/07/12 07:30:51;;;;;;;0.60;0.60;;;;;;;17.29;66.32;99106.37;1715170;83;21079;-77
2022/07/12 07:31:08;;;;;;;2.25;0.88;;;;;;;17.35;67.67;99114.39;1716497;82;22044;-77
2022/07/12 07:33:34;;;;;;;5.30;1.12;;;;;;;17.41;67.67;99114.81;1715151;83;21688;-76
2022/07/12 07:36:01;;;;;;;6.53;0.82;;;;;;;17.45;67.77;99121.64;1700906;83;21079;-78
2022/07/12 07:38:28;;;;;;;1.80;0.80;;;;;;;17.50;66.11;99123.12;1715243;83;21084;-78
2022/07/12 07:40:54;;;;;;;1.72;0.90;;;;;;;17.48;65.91;99123.22;1715792;82;21087;-77
2022/07/12 07:43:21;;;;;;;2.12;1.00;;;;;;;17.42;66.25;99132.48;1715062;83;21142;-77
2022/07/12 07:45:47;;;;;;;2.33;1.00;;;;;;;17.39;66.39;99130.03;1715551;83;21567;-78
2022/07/12 07:48:14;;;;;;;1.55;0.78;;;;;;;17.36;65.49;99134.23;1715052;83;20945;-79
2022/07/12 07:50:40;;;;;;;0.82;0.70;;;;;;;17.27;65.79;99138.38;1715470;83;21067;-77
2022/07/12 07:53:06;;;;;;;2.87;0.80;;;;;;;17.17;66.07;99144.44;1715333;82;21150;-77
2022/07/12 07:55:33;;;;;;;3.52;0.88;;;;;;;17.07;66.99;99134.90;1715316;83;21092;-78
2022/07/12 07:58:00;;;;;;;4.55;0.65;;;;;;;16.97;66.72;99145.29;1715431;82;21578;-77
2022/07/12 08:00:27;;;;;;;3.85;0.78;;;;;;;16.90;67.15;99156.81;1740016;82;21539;-77
2022/07/12 08:02:56;;;;;;;3.10;0.80;;;;;;;16.82;67.19;99143.62;1745051;82;21622;-78
2022/07/12 08:05:23;;;;;;;0.88;0.70;;;;;;;16.76;67.80;99141.37;1730311;82;21001;-78
2022/07/12 08:07:49;;;;;;;0.70;0.70;;;;;;;16.72;67.50;99153.52;1752939;81;22043;-78
2022/07/12 08:10:17;;;;;;;0.70;0.70;;;;;;;16.70;66.40;99146.14;1806159;79;21601;-77
2022/07/12 08:12:45;;;;;;;2.27;0.80;;;;;;;16.65;64.59;99138.95;1806830;79;21046;-77
2022/07/12 08:15:12;;;;;;;1.95;1.00;;;;;;;16.60;65.56;99137.07;1806970;79;20995;-77
2022/07/12 08:17:40;;;;;;;2.33;1.00;;;;;;;16.60;65.91;99134.42;1807307;79;21044;-78
2022/07/12 08:20:07;;;;;;;1.35;1.00;;;;;;;16.63;67.29;99139.53;1730582;82;21092;-78
2022/07/12 08:22:34;;;;;;;3.20;1.00;;;;;;;16.77;67.66;99136.45;1713814;83;21663;-77
2022/07/12 08:25:00;;;;;;;1.30;0.72;;;;;;;16.93;66.32;99147.80;1780357;80;21067;-77
2022/07/12 08:27:27;;;;;;;0.80;0.80;;;;;;;17.06;66.20;99134.52;1780513;80;21095;-78
2022/07/12 08:29:53;;;;;;;2.85;0.95;;;;;;;17.22;66.01;99138.33;1780856;79;21001;-79
2022/07/12 08:32:20;;;;;;;4.83;0.80;;;;;;;17.40;65.85;99140.19;1780574;80;21077;-79
2022/07/12 08:34:46;;;;;;;2.75;0.90;;;;;;;17.57;65.91;99137.72;1780381;80;21059;-77
2022/07/12 08:37:13;;;;;;;6.45;1.00;;;;;;;17.70;65.44;99141.22;1818401;78;21546;-77
2022/07/12 08:39:40;;;;;;;1.35;0.70;;;;;;;17.76;64.69;99134.12;1829830;78;21031;-77
2022/07/12 08:42:07;;;;;;;1.92;0.75;;;;;;;17.78;64.48;99134.85;1830103;77;20956;-78
2022/07/12 08:44:35;;;;;;;5.12;0.70;;;;;;;17.77;63.72;99129.17;1841411;77;22198;-78
2022/07/12 08:47:01;;;;;;;3.17;0.80;;;;;;;17.74;63.22;99134.71;1830080;78;21510;-78
2022/07/12 08:49:29;;;;;;;2.37;1.00;;;;;;;17.71;63.68;99124.28;1807239;78;21035;-77
2022/07/12 08:51:55;;;;;;;1.50;0.70;;;;;;;17.71;63.35;99122.95;1841546;77;21004;-79
2022/07/12 08:54:21;;;;;;;6.92;0.62;;;;;;;17.75;63.53;99120.46;1829995;78;20937;-78
2022/07/12 08:56:48;;;;;;;4.12;0.88;;;;;;;17.82;63.12;99132.36;1829983;78;21756;-78
2022/07/12 08:59:20;;;;;;;1.80;1.07;;;;;;;17.93;63.19;99125.45;1841540;77;21645;-78
2022/07/12 09:01:52;;;;;;;0.70;0.70;;;;;;;18.06;63.92;99127.61;1840673;77;21147;-77
2022/07/12 09:04:22;;;;;;;3.10;0.85;;;;;;;18.20;63.01;99120.79;1841664;77;21141;-78
2022/07/12 09:06:48;;;;;;;2.40;0.70;;;;;;;18.33;64.34;99125.25;1829585;78;21083;-77
2022/07/12 09:09:36;;;;;;;1.35;0.93;;;;;;;18.52;63.58;99136.23;1829880;77;21056;-78
2022/07/12 09:12:03;;;;;;;1.77;0.90;;;;;;;18.66;61.96;99142.36;1841451;77;21129;-78
2022/07/12 09:14:31;;;;;;;0.72;0.60;;;;;;;18.71;61.32;99134.88;1841149;77;21173;-77
2022/07/12 09:17:09;;;;;;;2.75;1.07;;;;;;;18.74;60.82;99131.98;1841356;77;21034;-78
2022/07/12 09:19:37;;;;;;;2.47;0.62;;;;;;;18.75;61.89;99128.37;1841111;77;21118;-78
2022/07/12 09:22:05;;;;;;;1.80;0.90;;;;;;;18.79;60.76;99139.16;1841752;77;21115;-78
2022/07/12 09:24:32;;;;;;;0.72;0.57;;;;;;;18.81;60.12;99133.70;1807068;78;20945;-77
2022/07/12 09:27:03;;;;;;;2.62;0.80;;;;;;;18.90;60.17;99153.90;1830180;78;21531;-78
2022/07/12 09:29:31;;;;;;;1.92;0.80;;;;;;;18.97;59.71;99140.95;1841228;77;21001;-79
2022/07/12 09:37:16;;;;;;;4.95;0.70;;;;;;;19.08;59.71;99133.47;1796549;78;20609;-78
2022/07/12 09:39:43;;;;;;;1.67;0.80;;;;;;;19.19;59.39;99138.84;1838476;78;20980;-78
2022/07/12 09:42:12;;;;;;;2.45;0.90;;;;;;;19.26;58.37;99149.40;1838835;78;21972;-78
2022/07/12 09:44:40;;;;;;;1.12;0.70;;;;;;;19.32;58.24;99129.42;1838554;78;21130;-77
2022/07/12 09:47:13;;;;;;;2.92;1.00;;;;;;;19.39;57.64;99137.80;1838651;78;21103;-77
2022/07/12 09:49:41;;;;;;;1.60;0.50;;;;;;;19.44;57.05;99143.63;1839155;78;20968;-76
2022/07/12 09:52:18;;;;;;;0.95;0.65;;;;;;;19.47;55.49;99138.06;1838755;78;21019;-78
2022/07/12 09:54:45;;;;;;;3.10;0.60;;;;;;;19.46;55.02;99134.52;1838528;78;21058;-78
2022/07/12 09:57:33;;;;;;;0.47;0.45;;;;;;;19.41;54.48;99127.86;1838546;78;21102;-79
2022/07/12 10:00:00;;;;;;;0.65;0.65;;;;;;;19.42;55.01;99128.23;1838829;78;21126;-77
2022/07/12 10:02:29;;;;;;;0.62;0.50;;;;;;;19.47;54.60;99119.39;1832275;77;22087;-78
2022/07/12 10:04:56;;;;;;;6.75;1.50;;;;;;;19.48;53.78;99121.07;1816237;79;21014;-77
2022/07/12 10:07:24;;;;;;;0.80;0.40;;;;;;;19.45;53.81;99123.97;1816118;78;21007;-77
2022/07/12 10:09:53;;;;;;;1.45;0.60;;;;;;;19.36;53.86;99135.37;1816741;79;21027;-79
2022/07/12 10:12:21;;;;;;;2.52;0.47;;;;;;;19.22;54.41;99129.28;1816345;78;21492;-78
2022/07/12 10:15:02;;;;;;;2.33;0.60;;;;;;;19.14;55.36;99132.17;1816606;79;21521;-78
2022/07/12 10:17:28;;;;;;;0.60;0.60;;;;;;;19.08;54.85;99124.13;1816017;79;21276;-79
2022/07/12 10:20:24;;;;;;;1.02;0.75;;;;;;;19.06;55.75;99124.74;1816627;79;21010;-78
2022/07/12 10:22:57;;;;;;;;;;;;;;;19.07;55.00;99115.30;1818875;79;21094;-78
2022/07/12 10:25:30;;;;;;;0.50;0.50;;;;;;;19.05;55.84;99132.39;1748657;80;21486;-78
2022/07/12 10:28:00;;;;;;;1.10;0.60;;;;;;;19.13;56.68;99124.63;1741545;81;21136;-77
2022/07/12 10:30:26;;;;;;;1.37;0.80;;;;;;;19.31;57.31;99120.55;1739222;82;21069;-77
2022/07/12 10:32:59;;;;;;;2.67;0.50;;;;;;;19.51;56.32;99112.83;1738624;82;21105;-78
2022/07/12 10:35:29;;;;;;;0.65;0.65;;;;;;;19.58;56.12;99106.03;1738854;81;21049;-78
2022/07/12 10:38:16;;;;;;;3.80;0.70;;;;;;;19.66;55.84;99107.62;1738104;81;21099;-78
2022/07/12 10:40:45;;;;;;;2.12;0.95;;;;;;;19.68;56.89;99108.83;1738701;81;21144;-77
2022/07/12 10:43:16;;;;;;;1.45;0.55;;;;;;;19.63;56.85;99111.86;1738456;82;21530;-77
2022/07/12 10:45:44;;;;;;;1.37;0.60;;;;;;;19.52;56.26;99117.20;1738886;82;21057;-78
2022/07/12 10:48:21;;;;;;;1.40;0.70;;;;;;;19.39;57.06;99121.80;1738384;82;21605;-78
2022/07/12 10:50:56;;;;;;;2.83;0.65;;;;;;;19.30;57.89;99124.20;1738760;82;21142;-77
2022/07/12 10:53:34;;;;;;;0.88;0.50;;;;;;;19.23;59.58;99131.45;1726338;82;21061;-77
2022/07/12 10:56:20;;;;;;;3.00;0.70;;;;;;;19.15;60.20;99138.72;1738960;82;21053;-77
2022/07/12 10:58:55;;;;;;;4.15;0.50;;;;;;;19.12;61.79;99140.28;1738680;82;21100;-77
2022/07/12 11:01:25;;;;;;;0.72;0.70;;;;;;;19.19;60.80;99146.84;1738795;82;21552;-77
2022/07/12 11:04:06;;;;;;;1.15;0.50;;;;;;;19.34;60.85;99133.31;1738770;81;21150;-78
2022/07/12 11:06:38;;;;;;;0.40;0.40;;;;;;;19.40;57.44;99142.16;1738775;82;21010;-78
2022/07/12 11:09:10;;;;;;;1.60;0.50;;;;;;;19.31;55.98;99137.89;1738728;82;21002;-78
2022/07/12 11:11:45;;;;;;;6.10;0.62;;;;;;;19.23;57.78;99141.66;1738471;82;21045;-78
2022/07/12 11:14:21;;;;;;;0.75;0.57;;;;;;;19.15;58.98;99141.39;1738492;81;21056;-77
2022/07/12 11:16:48;;;;;;;2.83;0.68;;;;;;;19.10;60.72;99130.23;1714765;82;21096;-77
2022/07/12 11:19:15;;;;;;;1.40;0.60;;;;;;;19.12;62.11;99122.95;1769009;81;21006;-78
2022/07/12 11:21:45;;;;;;;0.62;0.40;;;;;;;19.22;64.58;99121.27;1769596;81;21089;-79
2022/07/12 11:24:20;;;;;;;2.05;0.30;;;;;;;19.24;61.61;99116.67;1769053;81;20986;-78
2022/07/12 11:26:48;;;;;;;3.17;0.50;;;;;;;19.19;62.26;99110.84;1769173;81;21052;-77
2022/07/12 11:29:14;;;;;;;0.72;0.70;;;;;;;19.12;62.19;99109.62;1769076;81;21209;-78
2022/07/12 11:31:41;;;;;;;1.65;0.60;;;;;;;18.95;62.37;99126.91;1769099;81;21132;-76
2022/07/12 11:34:21;;;;;;;1.85;0.80;;;;;;;18.82;63.40;99130.93;1768710;81;21065;-77
2022/07/12 11:36:53;;;;;;;0.60;0.60;;;;;;;18.76;63.91;99142.04;1747940;81;21092;-76
2022/07/12 11:39:35;;;;;;;0.40;0.40;;;;;;;18.66;61.38;99141.03;1769630;81;21595;-77
2022/07/12 11:42:07;;;;;;;1.20;0.50;;;;;;;18.57;61.23;99144.73;1769576;81;22193;-78
2022/07/12 11:44:50;;;;;;;0.40;0.40;;;;;;;18.46;60.88;99144.70;1769448;81;21053;-77
2022/07/12 11:47:19;;;;;;;0.88;0.50;;;;;;;18.37;60.50;99153.34;1769504;81;21029;-78